Time;durP1;ratioP1;P1;durP2;ratioP2;P2;SDS_P1;SDS_P2;PMS_P1;PMS_P2;Temp;Humidity;BMP_temperature;BMP_pressure;BME280_temperature;BME280_humidity;BME280_pressure;Samples;Min_cycle;Max_cycle;Signal;HPM_P1;HPM_P2
2021/01/06 00:00:17;;;;;;;22.92;14.48;;;5.90;94.00;;;;;;5112775;28;20106;-53
2021/01/06 00:02:43;;;;;;;25.38;16.15;;;5.90;94.10;;;;;;5052809;28;20480;-53
2021/01/06 00:05:14;;;;;;;26.05;15.32;;;6.00;94.20;;;;;;5069980;28;20048;-53
2021/01/06 00:07:42;;;;;;;25.05;16.27;;;5.90;94.30;;;;;;5029990;28;20038;-53
2021/01/06 00:10:10;;;;;;;22.33;13.40;;;5.90;94.50;;;;;;5030015;28;20112;-53
2021/01/06 00:12:36;;;;;;;19.85;12.77;;;5.70;94.80;;;;;;4996983;28;20047;-53
2021/01/06 00:15:04;;;;;;;28.50;16.70;;;5.70;94.70;;;;;;5029946;28;20132;-53
2021/01/06 00:17:30;;;;;;;25.85;17.50;;;5.70;94.70;;;;;;4996664;28;20095;-53
2021/01/06 00:19:56;;;;;;;24.20;16.25;;;5.80;94.60;;;;;;5015273;28;20456;-54
2021/01/06 00:22:21;;;;;;;22.15;15.32;;;5.90;94.60;;;;;;5049776;28;20049;-53
2021/01/06 00:24:47;;;;;;;23.02;13.82;;;6.00;94.30;;;;;;5049772;28;20037;-53
2021/01/06 00:27:13;;;;;;;26.88;17.70;;;5.80;94.70;;;;;;5049680;28;20045;-53
2021/01/06 00:29:38;;;;;;;20.70;12.73;;;5.80;94.60;;;;;;5049846;28;20033;-53
2021/01/06 00:32:04;;;;;;;22.80;13.48;;;5.80;94.60;;;;;;5049710;28;20179;-53
2021/01/06 00:34:30;;;;;;;23.20;14.52;;;5.90;94.20;;;;;;5049628;28;20037;-53
2021/01/06 00:36:56;;;;;;;20.10;12.43;;;6.00;94.00;;;;;;5032988;28;20045;-53
2021/01/06 00:39:21;;;;;;;22.52;14.60;;;6.00;93.80;;;;;;5049405;28;20045;-53
2021/01/06 00:41:48;;;;;;;28.20;17.30;;;6.20;93.80;;;;;;5049835;28;20571;-53
2021/01/06 00:44:14;;;;;;;20.13;13.63;;;6.20;93.60;;;;;;5060395;28;20051;-53
2021/01/06 00:46:40;;;;;;;23.85;15.85;;;6.10;93.70;;;;;;5112346;28;20576;-53
2021/01/06 00:49:05;;;;;;;19.42;13.70;;;6.10;93.60;;;;;;5076641;28;20079;-53
2021/01/06 00:51:32;;;;;;;20.35;12.35;;;6.10;93.60;;;;;;5076471;28;20057;-53
2021/01/06 00:53:58;;;;;;;17.55;12.02;;;6.10;93.70;;;;;;5076420;28;20097;-53
2021/01/06 00:56:32;;;;;;;18.60;12.43;;;6.10;93.50;;;;;;5112279;28;20031;-53
2021/01/06 00:58:58;;;;;;;19.70;12.82;;;6.20;93.40;;;;;;5113304;28;20045;-53
2021/01/06 01:01:26;;;;;;;20.02;13.52;;;6.30;93.30;;;;;;5116202;28;20039;-53
2021/01/06 01:03:52;;;;;;;18.98;12.48;;;6.40;93.30;;;;;;5116228;28;20033;-53
2021/01/06 01:06:32;;;;;;;19.02;12.27;;;6.40;93.30;;;;;;5116273;28;20027;-53
2021/01/06 01:08:59;;;;;;;15.68;11.23;;;6.40;93.20;;;;;;5116093;28;20502;-53
2021/01/06 01:11:26;;;;;;;16.30;10.88;;;6.40;93.30;;;;;;5116120;28;20610;-53
2021/01/06 01:13:53;;;;;;;16.63;10.95;;;6.50;93.20;;;;;;5116232;28;20023;-53
2021/01/06 01:16:20;;;;;;;16.63;10.45;;;6.60;93.00;;;;;;5117163;28;20020;-53
2021/01/06 01:18:46;;;;;;;14.68;10.10;;;6.60;92.90;;;;;;5116976;28;20019;-53
2021/01/06 01:21:12;;;;;;;15.25;9.98;;;6.70;92.70;;;;;;5116658;28;20430;-53
2021/01/06 01:23:37;;;;;;;13.93;9.80;;;6.80;92.60;;;;;;5116676;28;20035;-53
2021/01/06 01:26:03;;;;;;;14.38;10.85;;;6.80;92.50;;;;;;5116933;28;20024;-53
2021/01/06 01:28:29;;;;;;;13.82;9.73;;;6.80;92.40;;;;;;5116947;28;20086;-53
2021/01/06 01:30:56;;;;;;;15.30;8.88;;;6.90;92.20;;;;;;5116951;28;20111;-53
2021/01/06 01:33:26;;;;;;;13.98;9.88;;;6.90;92.10;;;;;;5116681;28;20043;-53
2021/01/06 01:35:52;;;;;;;13.88;10.07;;;7.00;92.20;;;;;;5116871;28;20035;-53
2021/01/06 01:38:21;;;;;;;14.85;9.60;;;7.00;92.10;;;;;;5116592;28;20019;-53
2021/01/06 01:40:47;;;;;;;12.25;8.50;;;7.00;91.90;;;;;;5116497;28;20028;-53
2021/01/06 01:43:12;;;;;;;12.55;8.55;;;7.00;91.80;;;;;;5116375;28;20066;-53
2021/01/06 01:45:50;;;;;;;11.73;8.02;;;7.00;91.90;;;;;;5116465;28;20047;-53
2021/01/06 01:48:41;;;;;;;11.65;8.43;;;6.90;92.00;;;;;;5116650;28;20387;-53
2021/01/06 01:51:28;;;;;;;10.63;7.75;;;6.70;92.20;;;;;;5116880;28;20024;-53
2021/01/06 01:54:04;;;;;;;11.20;7.75;;;6.80;92.10;;;;;;5115087;28;20378;-53
2021/01/06 01:56:40;;;;;;;13.20;8.63;;;6.90;92.00;;;;;;5116225;28;20024;-53
2021/01/06 01:59:11;;;;;;;12.38;8.55;;;6.80;92.20;;;;;;5116187;28;20068;-53
2021/01/06 02:01:37;;;;;;;17.13;9.38;;;6.70;92.40;;;;;;5116262;28;20028;-53
2021/01/06 02:04:11;;;;;;;13.25;8.73;;;6.80;92.30;;;;;;5116145;28;20111;-53
2021/01/06 02:06:49;;;;;;;12.98;8.43;;;6.80;92.20;;;;;;5116142;28;20379;-53
2021/01/06 02:09:33;;;;;;;13.05;9.07;;;6.90;92.00;;;;;;5115919;28;20030;-53
2021/01/06 02:12:43;;;;;;;14.30;8.88;;;6.80;91.80;;;;;;5116149;28;20023;-53
2021/01/06 02:15:32;;;;;;;14.77;8.57;;;6.70;92.10;;;;;;5095173;28;20395;-53
2021/01/06 02:17:58;;;;;;;13.55;7.90;;;6.60;92.20;;;;;;5103237;28;20032;-53
2021/01/06 02:20:26;;;;;;;13.07;7.95;;;6.60;92.40;;;;;;5115764;28;20077;-53
2021/01/06 02:22:53;;;;;;;11.07;7.45;;;6.50;92.50;;;;;;5115764;28;20027;-53
2021/01/06 02:25:21;;;;;;;11.75;7.55;;;6.70;92.30;;;;;;5115683;28;20028;-53
2021/01/06 02:27:48;;;;;;;13.38;8.13;;;6.70;92.20;;;;;;5115594;28;20042;-53
2021/01/06 02:30:15;;;;;;;12.38;8.35;;;6.80;92.10;;;;;;5115732;28;20024;-53
2021/01/06 02:32:43;;;;;;;10.25;7.50;;;6.90;92.00;;;;;;5115726;28;20051;-53
2021/01/06 02:35:10;;;;;;;22.10;10.57;;;6.90;91.70;;;;;;5115467;28;20065;-53
2021/01/06 02:37:36;;;;;;;14.68;8.52;;;6.80;91.80;;;;;;5115377;28;20026;-53
2021/01/06 02:40:05;;;;;;;11.65;7.50;;;6.50;92.50;;;;;;5115388;28;20065;-53
2021/01/06 02:42:31;;;;;;;11.27;6.72;;;6.60;92.40;;;;;;5115932;28;20083;-54
2021/01/06 02:44:57;;;;;;;9.70;6.55;;;6.70;92.20;;;;;;5115619;28;20031;-53
2021/01/06 02:47:24;;;;;;;10.00;6.43;;;6.70;92.00;;;;;;5115482;28;20421;-53
2021/01/06 02:49:51;;;;;;;10.63;5.82;;;6.80;91.80;;;;;;5115062;28;20490;-53
2021/01/06 02:52:31;;;;;;;8.10;5.43;;;6.90;92.00;;;;;;5115334;28;20050;-53
2021/01/06 02:54:58;;;;;;;8.07;5.45;;;6.90;91.80;;;;;;5096386;28;20403;-53
2021/01/06 02:57:24;;;;;;;9.30;5.53;;;6.80;91.80;;;;;;5115029;28;20028;-52
2021/01/06 02:59:50;;;;;;;9.80;5.78;;;6.80;92.10;;;;;;5096273;28;20040;-53
2021/01/06 03:02:20;;;;;;;9.23;5.65;;;6.90;91.80;;;;;;5114919;28;20483;-53
2021/01/06 03:05:07;;;;;;;10.32;5.93;;;6.90;91.60;;;;;;5114797;28;20027;-53
2021/01/06 03:07:34;;;;;;;9.73;5.70;;;7.00;91.40;;;;;;5114781;28;20115;-53
2021/01/06 03:10:00;;;;;;;8.35;5.20;;;7.10;91.30;;;;;;5115102;28;20417;-54
2021/01/06 03:12:30;;;;;;;7.28;4.80;;;7.00;91.10;;;;;;5114883;28;20085;-53
2021/01/06 03:14:59;;;;;;;8.48;5.15;;;7.00;91.40;;;;;;5114016;28;20107;-53
2021/01/06 03:17:27;;;;;;;7.47;5.15;;;7.00;91.40;;;;;;5114684;28;20033;-53
2021/01/06 03:19:57;;;;;;;6.13;3.67;;;7.00;91.30;;;;;;5114375;28;20502;-53
2021/01/06 03:22:25;;;;;;;7.63;4.68;;;6.90;91.30;;;;;;5114199;28;20479;-53
2021/01/06 03:24:59;;;;;;;7.43;4.63;;;6.80;91.50;;;;;;5114341;28;20075;-53
2021/01/06 03:27:26;;;;;;;8.70;5.32;;;6.80;91.80;;;;;;5114481;28;20384;-53
2021/01/06 03:29:53;;;;;;;9.80;5.47;;;6.80;91.50;;;;;;5112794;28;20040;-53
2021/01/06 03:32:32;;;;;;;8.27;5.60;;;6.80;91.70;;;;;;5114461;28;20110;-53
2021/01/06 03:35:08;;;;;;;7.75;5.13;;;6.80;91.60;;;;;;5114533;28;20020;-53
2021/01/06 03:37:42;;;;;;;9.13;5.10;;;6.90;91.30;;;;;;5114540;28;20023;-53
2021/01/06 03:40:34;;;;;;;9.05;5.10;;;6.90;91.20;;;;;;5114204;28;20459;-53
2021/01/06 03:43:01;;;;;;;7.32;5.18;;;6.80;91.10;;;;;;4998625;28;20042;-53
2021/01/06 03:45:29;;;;;;;6.90;5.03;;;6.70;91.50;;;;;;5031595;28;20486;-53
2021/01/06 03:48:06;;;;;;;6.88;4.78;;;6.70;91.40;;;;;;5031548;28;20095;-53
2021/01/06 03:50:36;;;;;;;8.75;5.18;;;6.80;91.20;;;;;;5031988;28;20116;-52
2021/01/06 03:53:31;;;;;;;7.22;5.55;;;6.80;91.10;;;;;;5031891;28;20538;-53
2021/01/06 03:56:01;;;;;;;7.20;4.65;;;6.80;91.20;;;;;;5031590;28;20057;-53
2021/01/06 03:58:41;;;;;;;8.90;5.93;;;6.50;91.50;;;;;;5031697;28;20084;-53
2021/01/06 04:01:10;;;;;;;7.38;4.90;;;6.40;91.70;;;;;;5031361;28;20111;-53
2021/01/06 04:03:59;;;;;;;7.88;5.43;;;6.30;91.90;;;;;;5031339;28;20525;-53
2021/01/06 04:06:26;;;;;;;8.50;6.25;;;6.30;92.00;;;;;;5031499;28;20421;-53
2021/01/06 04:08:58;;;;;;;11.75;8.57;;;6.40;92.10;;;;;;5031344;28;20072;-53
2021/01/06 04:11:28;;;;;;;12.10;7.13;;;6.40;92.00;;;;;;5014552;28;20029;-53
2021/01/06 04:13:54;;;;;;;11.18;7.25;;;6.30;92.00;;;;;;4998767;28;20029;-53
2021/01/06 04:16:20;;;;;;;9.20;5.75;;;6.50;91.70;;;;;;5031264;28;20029;-53
2021/01/06 04:18:46;;;;;;;8.68;5.53;;;6.40;91.80;;;;;;5032641;28;20030;-52
2021/01/06 04:21:13;;;;;;;9.90;5.78;;;6.40;91.80;;;;;;5113924;28;20101;-53
2021/01/06 04:23:39;;;;;;;6.90;5.55;;;6.40;91.80;;;;;;5114233;28;20068;-53
2021/01/06 04:26:05;;;;;;;7.40;5.38;;;6.60;91.60;;;;;;5095377;28;20097;-53
2021/01/06 04:28:36;;;;;;;9.13;5.97;;;6.70;91.20;;;;;;5113596;28;20477;-53
2021/01/06 04:31:08;;;;;;;7.10;5.15;;;6.70;91.00;;;;;;5113590;28;20023;-53
2021/01/06 04:33:44;;;;;;;7.80;4.90;;;6.90;91.00;;;;;;5095293;28;20390;-53
2021/01/06 04:36:22;;;;;;;9.18;5.80;;;6.90;90.50;;;;;;5117953;28;20041;-53
2021/01/06 04:38:52;;;;;;;8.23;5.63;;;7.00;90.40;;;;;;5117786;28;20020;-53
2021/01/06 04:41:31;;;;;;;8.48;5.80;;;6.90;90.00;;;;;;5116163;28;20047;-53
2021/01/06 04:44:18;;;;;;;8.43;5.20;;;6.80;90.10;;;;;;5118165;28;20524;-53
2021/01/06 04:46:44;;;;;;;9.93;6.78;;;6.80;90.30;;;;;;5117652;28;20030;-53
2021/01/06 04:49:40;;;;;;;12.73;8.90;;;6.70;90.40;;;;;;5117638;28;20095;-53
2021/01/06 04:52:39;;;;;;;78.82;69.75;;;6.70;90.40;;;;;;5117429;28;20479;-53
2021/01/06 04:55:29;;;;;;;50.53;45.33;;;6.70;90.60;;;;;;5117410;28;20119;-53
2021/01/06 04:58:16;;;;;;;41.15;36.92;;;6.70;90.60;;;;;;5117391;28;20023;-52
2021/01/06 05:01:15;;;;;;;18.83;16.40;;;6.70;90.60;;;;;;5108433;28;20032;-53
2021/01/06 05:04:09;;;;;;;15.65;13.38;;;6.70;90.60;;;;;;5076465;28;20029;-53
2021/01/06 05:06:46;;;;;;;15.52;9.82;;;6.70;90.60;;;;;;5076555;28;20021;-53
2021/01/06 05:09:18;;;;;;;14.23;9.70;;;6.70;90.70;;;;;;5076590;28;20053;-53
2021/01/06 05:12:13;;;;;;;11.57;10.27;;;6.70;90.60;;;;;;5087510;28;20043;-53
2021/01/06 05:15:06;;;;;;;14.95;11.25;;;6.70;90.70;;;;;;5096648;28;20028;-53
2021/01/06 05:17:32;;;;;;;15.27;11.95;;;6.80;90.70;;;;;;5034246;28;20037;-53
2021/01/06 05:19:57;;;;;;;12.88;9.70;;;6.80;90.60;;;;;;5036822;28;20037;-53
2021/01/06 05:22:23;;;;;;;12.23;9.02;;;6.80;90.60;;;;;;5054173;28;20033;-53
2021/01/06 05:24:50;;;;;;;15.10;9.02;;;6.60;90.80;;;;;;5053991;28;20021;-52
2021/01/06 05:27:28;;;;;;;13.57;9.82;;;6.60;90.90;;;;;;5053795;28;20073;-53
2021/01/06 05:30:00;;;;;;;10.43;8.10;;;6.30;91.30;;;;;;5051432;28;20025;-53
2021/01/06 05:32:33;;;;;;;10.15;5.82;;;6.10;91.80;;;;;;5053893;28;20040;-53
2021/01/06 05:35:04;;;;;;;5.93;4.10;;;6.20;91.60;;;;;;5053049;28;20033;-53
2021/01/06 05:37:31;;;;;;;10.27;5.53;;;6.20;91.50;;;;;;5053958;28;20043;-53
2021/01/06 05:40:04;;;;;;;7.70;3.33;;;6.10;91.70;;;;;;5053864;28;20048;-53
2021/01/06 05:42:34;;;;;;;5.63;3.72;;;6.00;91.80;;;;;;5053862;28;20033;-53
2021/01/06 05:45:03;;;;;;;9.00;5.53;;;6.10;91.90;;;;;;5053205;28;20036;-53
2021/01/06 05:47:53;;;;;;;10.48;7.68;;;6.00;92.00;;;;;;5058406;28;20029;-53
2021/01/06 05:50:28;;;;;;;28.65;14.27;;;6.10;92.20;;;;;;5100522;28;20067;-53
2021/01/06 05:53:29;;;;;;;9.55;6.57;;;6.30;91.90;;;;;;5116147;28;20512;-53
2021/01/06 05:55:54;;;;;;;12.15;8.68;;;6.30;91.70;;;;;;5033462;28;20445;-53
2021/01/06 05:58:36;;;;;;;20.33;14.82;;;6.30;91.70;;;;;;5034468;28;20112;-53
2021/01/06 06:01:02;;;;;;;20.80;15.30;;;6.40;91.70;;;;;;5033673;28;20084;-53
2021/01/06 06:03:47;;;;;;;13.15;10.20;;;6.30;91.70;;;;;;5033688;28;20029;-53
2021/01/06 06:06:43;;;;;;;9.95;7.00;;;6.40;91.50;;;;;;5033416;28;20044;-53
2021/01/06 06:09:36;;;;;;;13.98;7.30;;;6.50;91.30;;;;;;5033675;28;20033;-53
2021/01/06 06:12:22;;;;;;;15.32;8.65;;;6.50;91.40;;;;;;5033173;28;20049;-53
2021/01/06 06:15:01;;;;;;;15.38;11.10;;;6.50;91.50;;;;;;5033304;28;20041;-53
2021/01/06 06:31:37;;;;;;;69.57;60.58;;;6.50;91.60;;;;;;5111256;27;20117;-53
2021/01/06 06:34:08;;;;;;;28.27;15.73;;;6.90;90.80;;;;;;5091113;28;20074;-53
2021/01/06 06:36:36;;;;;;;12.30;8.38;;;6.90;90.70;;;;;;5090843;28;20050;-53
2021/01/06 06:39:27;;;;;;;15.65;7.53;;;7.00;90.60;;;;;;5090677;28;20032;-53
2021/01/06 06:42:00;;;;;;;11.70;8.18;;;7.10;90.50;;;;;;4986584;28;20118;-53
2021/01/06 06:44:33;;;;;;;9.63;7.93;;;7.10;90.20;;;;;;4989369;28;20062;-53
2021/01/06 06:47:01;;;;;;;14.18;9.25;;;7.10;90.20;;;;;;4988622;28;20046;-53
2021/01/06 06:49:54;;;;;;;10.45;9.18;;;7.20;90.30;;;;;;4972591;28;20034;-56
2021/01/06 06:52:57;;;;;;;9.88;5.28;;;7.20;90.40;;;;;;4988876;28;20027;-53
2021/01/06 06:55:35;;;;;;;10.15;5.88;;;7.70;89.20;;;;;;4989298;28;20414;-53
2021/01/06 06:58:38;;;;;;;13.27;10.30;;;7.40;89.60;;;;;;4988931;28;20089;-53
2021/01/06 07:01:06;;;;;;;;;;;7.40;89.60;;;;;;4971571;28;20038;-54
2021/01/06 07:03:32;;;;;;;7.60;4.65;;;7.30;89.90;;;;;;4983497;28;19910;-53
2021/01/06 07:06:01;;;;;;;7.70;6.13;;;7.20;90.30;;;;;;4976699;28;20437;-55
2021/01/06 07:08:43;;;;;;;8.25;6.28;;;7.30;90.10;;;;;;4981768;28;20035;-53
2021/01/06 07:11:20;;;;;;;17.17;8.38;;;7.30;90.40;;;;;;4981518;28;20062;-52
2021/01/06 07:13:54;;;;;;;14.95;8.80;;;7.30;90.20;;;;;;4967935;28;20027;-52
2021/01/06 07:16:32;;;;;;;11.50;7.65;;;7.40;90.30;;;;;;4967689;28;20035;-51
2021/01/06 07:19:34;;;;;;;16.80;10.15;;;7.30;90.50;;;;;;5019192;28;20033;-55
2021/01/06 07:22:28;;;;;;;;;;;7.30;90.60;;;;;;4967954;28;20043;-56
2021/01/06 07:25:11;;;;;;;15.10;8.00;;;7.20;91.20;;;;;;4967672;28;19937;-53
2021/01/06 07:27:37;;;;;;;20.15;11.25;;;7.20;91.10;;;;;;4967555;28;20050;-55
2021/01/06 07:30:05;;;;;;;36.80;21.60;;;7.20;91.30;;;;;;4971295;28;20066;-55
2021/01/06 07:32:39;;;;;;;28.67;18.73;;;7.40;91.30;;;;;;4943155;28;20053;-53
2021/01/06 07:35:31;;;;;;;59.47;29.55;;;7.40;91.10;;;;;;4975160;28;20096;-52
2021/01/06 07:38:02;;;;;;;55.90;27.42;;;7.40;91.10;;;;;;4975271;28;20042;-53
2021/01/06 07:40:40;;;;;;;30.00;18.52;;;7.60;91.30;;;;;;4975118;28;20467;-55
2021/01/06 07:43:16;;;;;;;11.40;8.00;;;7.70;91.30;;;;;;4975008;28;20062;-52
2021/01/06 07:45:51;;;;;;;13.77;10.73;;;7.70;90.70;;;;;;4975143;28;20590;-52
2021/01/06 07:48:17;;;;;;;18.80;12.93;;;7.70;91.30;;;;;;4975559;28;20027;-52
2021/01/06 07:51:10;;;;;;;15.68;10.68;;;7.80;91.70;;;;;;4942934;28;20049;-55
2021/01/06 07:54:04;;;;;;;14.93;11.48;;;7.80;91.50;;;;;;4958793;28;20390;-55
2021/01/06 07:56:57;;;;;;;28.50;23.35;;;8.10;92.20;;;;;;4936527;29;20043;-55
2021/01/06 07:59:56;;;;;;;20.10;14.43;;;8.10;91.20;;;;;;4945294;28;20050;-56
2021/01/06 08:02:37;;;;;;;12.63;10.60;;;8.40;90.40;;;;;;4969802;28;20356;-53
2021/01/06 08:05:41;;;;;;;13.07;10.40;;;8.50;89.90;;;;;;4974683;28;20038;-55
2021/01/06 08:08:15;;;;;;;17.10;11.43;;;8.40;89.80;;;;;;4917467;29;20488;-54
2021/01/06 08:10:44;;;;;;;38.60;25.15;;;8.50;90.40;;;;;;4917248;29;20447;-56
2021/01/06 08:13:18;;;;;;;18.50;14.80;;;8.40;90.80;;;;;;4917269;29;20040;-54
2021/01/06 08:15:46;;;;;;;19.88;15.18;;;8.50;90.70;;;;;;4914874;29;20096;-53
2021/01/06 08:18:27;;;;;;;16.92;14.00;;;8.50;90.90;;;;;;4917191;29;20087;-54
2021/01/06 08:21:05;;;;;;;18.40;14.73;;;8.60;91.00;;;;;;4901033;29;20083;-53
2021/01/06 08:24:08;;;;;;;22.02;16.80;;;8.70;90.90;;;;;;4917248;29;20024;-52
2021/01/06 08:26:34;;;;;;;;;;;8.70;90.90;;;;;;4880138;29;20048;-54
2021/01/06 08:29:18;;;;;;;24.35;18.45;;;8.80;90.90;;;;;;4879435;29;19924;-53
2021/01/06 08:31:45;;;;;;;27.13;20.58;;;8.70;90.90;;;;;;4897920;29;20052;-55
2021/01/06 08:34:20;;;;;;;25.73;21.15;;;9.00;91.10;;;;;;4925962;29;20046;-53
2021/01/06 08:36:54;;;;;;;25.25;20.40;;;9.10;91.50;;;;;;4936063;29;20031;-55
2021/01/06 08:39:23;;;;;;;30.50;23.15;;;9.00;91.10;;;;;;4932994;29;20072;-54
2021/01/06 08:41:50;;;;;;;30.95;23.80;;;9.00;91.40;;;;;;4954948;28;20493;-53
2021/01/06 08:44:29;;;;;;;30.42;23.92;;;9.10;91.00;;;;;;4953983;29;20042;-53
2021/01/06 08:46:57;;;;;;;29.02;21.33;;;9.10;91.00;;;;;;4954831;29;20036;-53
2021/01/06 08:49:28;;;;;;;29.85;22.70;;;9.10;90.50;;;;;;4954675;29;20578;-56
2021/01/06 08:51:56;;;;;;;31.00;25.20;;;9.10;90.40;;;;;;4954487;29;20027;-54
2021/01/06 08:54:31;;;;;;;53.28;35.85;;;9.10;90.80;;;;;;4954603;29;20023;-53
2021/01/06 08:57:06;;;;;;;41.47;33.58;;;9.10;90.70;;;;;;4938323;29;20039;-55
2021/01/06 08:59:36;;;;;;;35.35;29.83;;;8.90;91.20;;;;;;4954586;29;20073;-56
2021/01/06 09:02:11;;;;;;;36.00;28.88;;;8.90;91.40;;;;;;4954343;29;20498;-55
2021/01/06 09:04:43;;;;;;;37.42;29.65;;;8.60;91.60;;;;;;5054526;28;20031;-55
2021/01/06 09:07:20;;;;;;;34.70;27.92;;;8.40;92.50;;;;;;5036808;28;20029;-53
2021/01/06 09:10:00;;;;;;;33.35;27.23;;;8.30;92.80;;;;;;5054660;28;20424;-53
2021/01/06 09:12:57;;;;;;;33.80;24.95;;;8.30;93.20;;;;;;5036637;28;20025;-56
2021/01/06 09:15:36;;;;;;;36.70;29.45;;;8.30;93.10;;;;;;5054251;28;20036;-53
2021/01/06 09:18:08;;;;;;;38.58;29.02;;;8.20;93.60;;;;;;5054139;28;20547;-53
2021/01/06 09:21:06;;;;;;;37.15;30.58;;;8.20;93.60;;;;;;5054173;28;20473;-54
2021/01/06 09:23:33;;;;;;;36.25;29.25;;;8.10;94.10;;;;;;4992766;28;20049;-53
2021/01/06 09:26:00;;;;;;;38.67;29.85;;;8.30;93.90;;;;;;4992550;28;20077;-54
2021/01/06 09:28:27;;;;;;;40.80;32.92;;;8.40;93.70;;;;;;4992612;28;20037;-50
2021/01/06 09:30:53;;;;;;;42.05;32.13;;;8.40;94.20;;;;;;5005558;28;20058;-53
2021/01/06 09:33:31;;;;;;;33.30;27.02;;;8.40;94.40;;;;;;5012198;28;20033;-53
2021/01/06 09:36:00;;;;;;;33.13;26.55;;;8.50;94.00;;;;;;5012139;28;20386;-51
2021/01/06 09:38:35;;;;;;;35.20;25.45;;;8.60;94.50;;;;;;5012441;28;20034;-54
2021/01/06 09:41:06;;;;;;;29.77;24.40;;;8.60;94.10;;;;;;5011746;28;20123;-52
2021/01/06 09:43:36;;;;;;;31.73;25.17;;;8.70;93.90;;;;;;5012116;28;20145;-54
2021/01/06 09:46:16;;;;;;;27.35;21.75;;;8.70;94.20;;;;;;5012152;28;20046;-52
2021/01/06 09:48:45;;;;;;;29.80;23.83;;;8.40;94.30;;;;;;5011996;28;20038;-53
2021/01/06 09:51:12;;;;;;;29.10;22.48;;;8.50;94.50;;;;;;5011872;28;20454;-52
2021/01/06 09:53:38;;;;;;;27.02;22.15;;;8.50;94.50;;;;;;5011880;28;20378;-51
2021/01/06 09:56:05;;;;;;;35.70;25.27;;;8.60;94.50;;;;;;5011740;28;20029;-54
2021/01/06 09:58:37;;;;;;;31.17;25.67;;;8.50;94.90;;;;;;5011940;28;20026;-54
2021/01/06 10:01:24;;;;;;;27.08;23.10;;;8.60;95.40;;;;;;5042260;28;20122;-52
2021/01/06 10:03:54;;;;;;;28.35;21.05;;;8.70;94.70;;;;;;5053677;28;20422;-53
2021/01/06 10:06:41;;;;;;;31.92;23.95;;;8.70;94.80;;;;;;5053526;28;20451;-55
2021/01/06 10:09:31;;;;;;;28.00;22.75;;;8.70;94.50;;;;;;5053589;28;20025;-53
2021/01/06 10:12:00;;;;;;;29.42;22.55;;;8.70;94.80;;;;;;5053489;28;20464;-49
2021/01/06 10:14:56;;;;;;;29.85;23.75;;;8.90;94.60;;;;;;5002089;28;20362;-51
2021/01/06 10:17:26;;;;;;;32.42;23.80;;;8.70;94.70;;;;;;5001865;28;20484;-51
2021/01/06 10:20:16;;;;;;;28.13;23.50;;;8.60;94.90;;;;;;5053553;28;20037;-51
2021/01/06 10:22:54;;;;;;;27.55;21.60;;;8.60;95.00;;;;;;5053422;28;20044;-49
2021/01/06 10:25:31;;;;;;;32.17;25.48;;;8.80;94.50;;;;;;5035147;28;20037;-50
2021/01/06 10:27:59;;;;;;;38.85;31.38;;;8.90;94.00;;;;;;5053581;28;20036;-49
2021/01/06 10:30:28;;;;;;;57.60;43.38;;;8.90;94.20;;;;;;5063944;28;20040;-50
2021/01/06 10:33:09;;;;;;;26.67;20.83;;;8.90;94.40;;;;;;5073563;28;20428;-50
2021/01/06 10:35:41;;;;;;;36.00;27.67;;;9.20;93.30;;;;;;5073338;28;20067;-51
2021/01/06 10:38:25;;;;;;;;;;;9.40;93.20;;;;;;5070695;28;20410;-52
2021/01/06 10:40:55;;;;;;;42.67;28.45;;;9.40;92.80;;;;;;5060799;28;19935;-54
2021/01/06 10:43:34;;;;;;;53.15;38.20;;;9.60;92.80;;;;;;5051172;28;20074;-53
2021/01/06 10:46:01;;;;;;;37.63;28.75;;;9.30;92.50;;;;;;5052551;28;20588;-52
2021/01/06 10:48:45;;;;;;;36.45;27.23;;;9.30;93.50;;;;;;5035489;28;20241;-55
2021/01/06 10:51:49;;;;;;;28.58;19.77;;;9.50;93.30;;;;;;5053229;28;20471;-49
2021/01/06 10:54:24;;;;;;;30.90;25.55;;;8.80;93.90;;;;;;5052908;28;20079;-53
2021/01/06 10:56:51;;;;;;;37.75;28.50;;;8.60;94.90;;;;;;5001792;28;20033;-51
2021/01/06 10:59:17;;;;;;;23.25;18.35;;;8.30;95.40;;;;;;5052871;28;20033;-52
2021/01/06 11:01:54;;;;;;;24.63;19.08;;;8.20;95.80;;;;;;5052934;28;20116;-52
2021/01/06 11:04:33;;;;;;;33.10;25.00;;;8.40;95.70;;;;;;5017897;28;20029;-54
2021/01/06 11:07:25;;;;;;;65.47;40.60;;;8.80;95.00;;;;;;5055077;28;20345;-54
2021/01/06 11:10:19;;;;;;;52.40;36.10;;;8.80;94.60;;;;;;5056535;28;20021;-53
2021/01/06 11:13:10;;;;;;;35.33;29.10;;;8.60;94.80;;;;;;5021527;28;20033;-52
2021/01/06 11:15:51;;;;;;;28.90;22.38;;;8.90;95.30;;;;;;5021492;28;20061;-52
2021/01/06 11:18:22;;;;;;;24.52;20.05;;;9.00;94.40;;;;;;5056542;28;20032;-53
2021/01/06 11:21:10;;;;;;;25.50;21.40;;;8.70;94.90;;;;;;5056431;28;20035;-50
2021/01/06 11:23:52;;;;;;;24.73;19.98;;;8.40;96.10;;;;;;5061673;28;20028;-52
2021/01/06 11:26:21;;;;;;;41.40;31.15;;;8.30;96.60;;;;;;5076183;28;20174;-50
2021/01/06 11:29:01;;;;;;;24.60;20.92;;;8.00;97.70;;;;;;5076273;28;20407;-50
2021/01/06 11:31:30;;;;;;;28.42;22.02;;;8.10;97.50;;;;;;5075790;28;20071;-50
2021/01/06 11:34:07;;;;;;;27.13;20.23;;;8.00;97.40;;;;;;5073478;28;20373;-51
2021/01/06 11:36:51;;;;;;;29.88;24.77;;;7.90;98.00;;;;;;5076144;28;20025;-51
2021/01/06 11:39:36;;;;;;;32.08;25.80;;;8.10;98.10;;;;;;5075967;28;20039;-50
2021/01/06 11:42:16;;;;;;;28.65;23.33;;;8.00;97.80;;;;;;5076222;28;20041;-49
2021/01/06 11:45:07;;;;;;;28.83;23.27;;;8.20;97.90;;;;;;5076355;28;20028;-50
2021/01/06 11:47:46;;;;;;;28.88;24.00;;;8.30;97.60;;;;;;5013965;28;20073;-51
2021/01/06 11:50:40;;;;;;;35.50;26.88;;;8.40;97.30;;;;;;5014168;28;20070;-49
2021/01/06 11:53:24;;;;;;;40.28;26.60;;;8.10;97.40;;;;;;4981232;28;20049;-50
2021/01/06 11:55:59;;;;;;;29.25;22.00;;;8.30;97.70;;;;;;5013991;28;20505;-50
2021/01/06 11:58:32;;;;;;;26.77;22.20;;;8.30;97.80;;;;;;5014162;28;20469;-49
2021/01/06 12:01:23;;;;;;;30.88;23.48;;;8.50;97.60;;;;;;5013760;28;20038;-49
2021/01/06 12:04:09;;;;;;;29.95;23.58;;;8.50;97.50;;;;;;5013918;28;20022;-50
2021/01/06 12:06:45;;;;;;;27.88;22.13;;;8.50;97.60;;;;;;4967306;28;20066;-54
2021/01/06 12:09:36;;;;;;;27.92;19.63;;;8.40;97.50;;;;;;4993929;28;20147;-48
2021/01/06 12:12:40;;;;;;;37.08;27.23;;;8.10;98.10;;;;;;4935727;29;20050;-54
2021/01/06 12:15:26;;;;;;;28.80;23.25;;;8.20;98.50;;;;;;4936272;29;20039;-45
2021/01/06 12:17:56;;;;;;;26.70;22.15;;;8.20;98.40;;;;;;4939653;28;20081;-52
2021/01/06 12:20:30;;;;;;;34.63;23.95;;;8.30;98.10;;;;;;4954878;29;20144;-54
2021/01/06 12:23:19;;;;;;;33.83;24.42;;;8.30;98.40;;;;;;4954024;29;20043;-54
2021/01/06 12:25:57;;;;;;;34.28;27.23;;;8.40;98.10;;;;;;4915544;29;20043;-51
2021/01/06 12:28:28;;;;;;;34.67;25.80;;;8.50;98.10;;;;;;4915458;29;20048;-51
2021/01/06 12:31:16;;;;;;;40.58;29.27;;;8.70;97.60;;;;;;4930967;29;20051;-51
2021/01/06 12:34:02;;;;;;;33.70;25.45;;;8.60;98.00;;;;;;4931012;29;20396;-53
2021/01/06 12:36:55;;;;;;;38.58;29.85;;;8.60;98.20;;;;;;4914895;29;20131;-46
2021/01/06 12:39:32;;;;;;;33.65;27.40;;;8.60;98.30;;;;;;4914940;29;20044;-46
2021/01/06 12:42:15;;;;;;;47.38;36.83;;;8.80;97.60;;;;;;4915241;29;20127;-50
2021/01/06 12:45:13;;;;;;;43.08;34.60;;;9.00;97.30;;;;;;4930850;29;20464;-47
2021/01/06 12:48:09;;;;;;;68.13;45.10;;;9.10;96.70;;;;;;4895882;29;20047;-47
2021/01/06 12:50:37;;;;;;;56.00;39.88;;;9.20;96.50;;;;;;4898389;29;20044;-48
2021/01/06 12:53:12;;;;;;;59.53;33.72;;;9.10;97.10;;;;;;4914641;29;20040;-50
2021/01/06 12:56:06;;;;;;;41.42;30.77;;;9.30;96.80;;;;;;4914882;29;20404;-48
2021/01/06 12:58:44;;;;;;;26.70;19.98;;;9.30;95.80;;;;;;4914755;29;20040;-46
2021/01/06 13:01:29;;;;;;;27.83;22.33;;;9.40;96.20;;;;;;4914807;29;20039;-53
2021/01/06 13:03:57;;;;;;;31.95;23.77;;;9.60;95.30;;;;;;4951701;29;20047;-46
2021/01/06 13:06:42;;;;;;;38.97;30.33;;;9.20;96.00;;;;;;4937080;29;20491;-51
2021/01/06 13:09:13;;;;;;;52.25;36.42;;;8.90;97.10;;;;;;4936665;29;20447;-52
2021/01/06 13:11:41;;;;;;;57.58;37.20;;;8.70;98.10;;;;;;4952812;29;20124;-52
2021/01/06 13:14:27;;;;;;;37.33;28.80;;;8.80;98.20;;;;;;4952833;29;20046;-50
2021/01/06 13:17:00;;;;;;;33.47;26.63;;;8.70;98.10;;;;;;4952665;29;20483;-52
2021/01/06 13:19:38;;;;;;;37.55;28.73;;;8.80;98.10;;;;;;4952657;29;20031;-51
2021/01/06 13:22:37;;;;;;;35.97;26.73;;;8.90;97.80;;;;;;4952620;29;20027;-50
2021/01/06 13:25:14;;;;;;;38.83;29.30;;;8.90;97.60;;;;;;5024932;28;20029;-52
2021/01/06 13:28:12;;;;;;;34.42;25.42;;;8.90;97.80;;;;;;5034179;28;20021;-52
2021/01/06 13:31:23;;;;;;;33.92;25.33;;;8.90;97.80;;;;;;5026526;28;20052;-52
2021/01/06 13:34:10;;;;;;;31.33;23.63;;;8.80;98.20;;;;;;5052660;28;20029;-51
2021/01/06 13:36:59;;;;;;;44.97;36.47;;;8.70;98.20;;;;;;5052530;28;20116;-52
2021/01/06 13:39:45;;;;;;;35.58;25.75;;;8.90;98.20;;;;;;5052730;28;20044;-52
2021/01/06 13:42:25;;;;;;;29.73;22.60;;;8.70;98.10;;;;;;5052635;28;20473;-53